createdAt,value
2023-04-28T00:01:00.534Z,2.07
2023-04-28T00:03:26.997Z,2.60
2023-04-28T00:05:53.463Z,2.07
2023-04-28T00:08:20.003Z,1.83
2023-04-28T00:10:46.374Z,1.64
2023-04-28T00:13:12.848Z,1.46
2023-04-28T00:15:39.244Z,1.50
2023-04-28T00:18:05.650Z,1.65
2023-04-28T00:20:32.005Z,1.55
2023-04-28T00:22:58.382Z,1.59
2023-04-28T00:25:24.739Z,1.56
2023-04-28T00:27:53.384Z,1.61
2023-04-28T00:30:19.720Z,1.57
2023-04-28T00:32:46.178Z,1.66
2023-04-28T00:35:12.533Z,1.63
2023-04-28T00:37:39.954Z,1.59
2023-04-28T00:40:06.310Z,1.44
2023-04-28T00:42:32.714Z,1.68
2023-04-28T00:44:59.102Z,1.57
2023-04-28T00:47:26.494Z,1.55
2023-04-28T00:49:52.843Z,1.57
2023-04-28T00:52:19.184Z,1.49
2023-04-28T00:54:45.560Z,1.75
2023-04-28T00:57:11.943Z,1.72
2023-04-28T00:59:38.335Z,1.78
2023-04-28T01:02:04.785Z,1.61
2023-04-28T01:04:31.489Z,1.63
2023-04-28T01:06:58.129Z,1.42
2023-04-28T01:09:24.506Z,1.67
2023-04-28T01:11:50.930Z,1.87
2023-04-28T01:14:17.630Z,2.35
2023-04-28T01:16:44.150Z,1.91
2023-04-28T01:19:10.570Z,1.79
2023-04-28T01:21:36.945Z,1.72
2023-04-28T01:24:03.757Z,1.77
2023-04-28T01:26:30.126Z,1.61
2023-04-28T01:28:56.562Z,1.61
2023-04-28T01:31:23.072Z,1.60
2023-04-28T01:33:49.415Z,1.77
2023-04-28T01:36:15.848Z,1.80
2023-04-28T01:38:42.196Z,1.83
2023-04-28T01:41:08.579Z,1.78
2023-04-28T01:43:34.931Z,1.74
2023-04-28T01:46:01.614Z,1.58
2023-04-28T01:48:27.977Z,1.52
2023-04-28T01:50:54.315Z,1.80
2023-04-28T01:53:20.885Z,1.54
2023-04-28T01:55:47.226Z,1.48
2023-04-28T01:58:13.591Z,1.47
2023-04-28T02:00:39.916Z,1.40
2023-04-28T02:03:06.386Z,1.57
2023-04-28T02:05:32.787Z,1.57
2023-04-28T02:07:59.164Z,1.54
2023-04-28T02:10:25.530Z,1.49
2023-04-28T02:12:51.890Z,1.73
2023-04-28T02:15:18.486Z,2.02
2023-04-28T02:17:44.886Z,1.99
2023-04-28T02:20:11.610Z,1.98
2023-04-28T02:22:37.941Z,2.15
2023-04-28T02:25:04.336Z,2.12
2023-04-28T02:27:30.738Z,2.30
2023-04-28T02:29:57.120Z,2.12
2023-04-28T02:32:23.528Z,1.96
2023-04-28T02:34:52.398Z,2.32
2023-04-28T02:37:18.770Z,2.21
2023-04-28T02:39:45.157Z,1.87
2023-04-28T02:42:11.555Z,1.64
2023-04-28T02:44:37.945Z,1.92
2023-04-28T02:47:04.337Z,1.83
2023-04-28T02:49:31.073Z,1.94
2023-04-28T02:51:57.864Z,1.64
2023-04-28T02:54:24.261Z,1.60
2023-04-28T02:56:54.938Z,1.78
2023-04-28T03:01:48.082Z,1.59
2023-04-28T03:04:14.868Z,1.38
2023-04-28T03:06:42.011Z,1.56
2023-04-28T03:09:08.615Z,1.55
2023-04-28T03:11:37.056Z,1.60
2023-04-28T03:14:03.474Z,1.34
2023-04-28T03:16:30.044Z,1.42
2023-04-28T03:18:56.641Z,1.52
2023-04-28T03:21:23.390Z,1.43
2023-04-28T03:23:50.120Z,1.32
2023-04-28T03:26:16.556Z,1.45
2023-04-28T03:28:43.076Z,1.42
2023-04-28T03:31:09.430Z,1.45
2023-04-28T03:33:40.507Z,1.29
2023-04-28T03:36:06.950Z,1.51
2023-04-28T03:38:33.354Z,1.31
2023-04-28T03:41:00.097Z,1.51
2023-04-28T03:43:26.480Z,1.47
2023-04-28T03:45:53.906Z,1.43
2023-04-28T03:48:22.397Z,1.31
2023-04-28T03:50:50.925Z,1.25
2023-04-28T03:53:17.442Z,1.27
2023-04-28T03:55:45.986Z,1.46
2023-04-28T03:58:12.907Z,1.48
2023-04-28T04:00:44.082Z,1.36
2023-04-28T04:03:10.863Z,1.41
2023-04-28T04:05:37.455Z,1.57
2023-04-28T04:08:03.957Z,1.24
2023-04-28T04:10:30.681Z,1.44
2023-04-28T04:12:57.071Z,1.35
2023-04-28T04:15:23.453Z,1.45
2023-04-28T04:17:49.863Z,1.49
2023-04-28T04:20:16.235Z,1.42
2023-04-28T04:22:42.978Z,1.45
2023-04-28T04:25:09.807Z,1.42
2023-04-28T04:27:36.167Z,1.38
2023-04-28T04:30:02.773Z,1.48
2023-04-28T04:32:30.843Z,1.36
2023-04-28T04:34:57.365Z,1.29
2023-04-28T04:37:23.751Z,1.48
2023-04-28T04:39:50.111Z,1.40
2023-04-28T04:42:24.768Z,1.59
2023-04-28T04:44:52.116Z,1.35
2023-04-28T04:47:18.507Z,1.34
2023-04-28T04:49:45.250Z,1.38
2023-04-28T04:52:11.758Z,1.35
2023-04-28T04:54:41.072Z,1.52
2023-04-28T04:57:07.521Z,1.34
2023-04-28T04:59:33.973Z,1.19
2023-04-28T05:02:00.401Z,1.44
2023-04-28T05:04:26.883Z,1.36
2023-04-28T05:06:53.508Z,1.40
2023-04-28T05:09:20.197Z,1.32
2023-04-28T05:11:46.960Z,1.31
2023-04-28T05:14:13.355Z,1.31
2023-04-28T05:16:40.011Z,1.25
2023-04-28T05:19:06.380Z,1.29
2023-04-28T05:21:32.745Z,1.22
2023-04-28T05:23:59.177Z,1.21
2023-04-28T05:26:25.622Z,1.28
2023-04-28T05:28:52.024Z,1.39
2023-04-28T05:31:19.520Z,1.17
2023-04-28T05:33:46.036Z,1.44
2023-04-28T05:36:12.410Z,1.28
2023-04-28T05:38:38.800Z,1.34
2023-04-28T05:41:05.189Z,1.44
2023-04-28T05:43:31.585Z,1.40
2023-04-28T05:45:58.005Z,1.52
2023-04-28T05:48:24.583Z,1.87
2023-04-28T05:50:51.004Z,1.68
2023-04-28T05:53:17.431Z,1.53
2023-04-28T05:55:43.802Z,1.62
2023-04-28T05:58:10.167Z,1.35
2023-04-28T06:00:36.602Z,1.53
2023-04-28T06:03:03.073Z,1.61
2023-04-28T06:05:29.866Z,1.54
2023-04-28T06:07:56.540Z,1.42
2023-04-28T06:10:22.912Z,1.28
2023-04-28T06:12:49.259Z,1.52
2023-04-28T06:15:15.646Z,1.20
2023-04-28T06:17:42.213Z,1.37
2023-04-28T06:20:08.628Z,1.32
2023-04-28T06:22:34.955Z,1.29
2023-04-28T06:25:01.669Z,1.19
2023-04-28T06:27:29.062Z,1.36
2023-04-28T06:29:55.455Z,1.27
2023-04-28T06:32:22.261Z,1.35
2023-04-28T06:34:48.874Z,1.26
2023-04-28T06:37:15.263Z,1.30
2023-04-28T06:39:41.649Z,1.15
2023-04-28T06:42:08.490Z,1.22
2023-04-28T06:44:36.322Z,1.30
2023-04-28T06:47:03.135Z,1.25
2023-04-28T06:49:29.670Z,1.38
2023-04-28T06:51:57.235Z,1.38
2023-04-28T06:54:23.591Z,1.37
2023-04-28T06:56:50.084Z,1.50
2023-04-28T06:59:16.469Z,1.26
2023-04-28T07:01:42.900Z,1.37
2023-04-28T07:04:09.387Z,1.27
2023-04-28T07:06:36.059Z,1.31
2023-04-28T07:09:04.352Z,1.25
2023-04-28T07:11:30.827Z,1.16
2023-04-28T07:13:57.274Z,1.32
2023-04-28T07:16:24.131Z,1.36
2023-04-28T07:18:50.482Z,1.48
2023-04-28T07:21:16.900Z,1.57
2023-04-28T07:23:43.279Z,1.35
2023-04-28T07:26:09.845Z,1.36
2023-04-28T07:28:36.245Z,1.58
2023-04-28T07:31:02.621Z,1.45
2023-04-28T07:33:28.999Z,1.41
2023-04-28T07:35:55.407Z,1.28
2023-04-28T07:38:21.805Z,1.38
2023-04-28T07:40:48.173Z,1.29
2023-04-28T07:43:14.764Z,1.42
2023-04-28T07:45:42.784Z,1.32
2023-04-28T07:48:09.315Z,1.48
2023-04-28T07:50:36.123Z,1.59
2023-04-28T07:53:02.668Z,1.46
2023-04-28T07:55:29.048Z,1.39
2023-04-28T07:57:55.954Z,1.42
2023-04-28T08:00:22.490Z,1.56
2023-04-28T08:02:49.077Z,1.49
2023-04-28T08:05:15.708Z,1.55
2023-04-28T08:07:42.374Z,1.55
2023-04-28T08:10:09.776Z,1.53
2023-04-28T08:12:36.124Z,1.55
2023-04-28T08:15:02.457Z,1.45
2023-04-28T08:17:28.887Z,1.54
2023-04-28T08:19:55.244Z,1.59
2023-04-28T08:22:21.677Z,1.46
2023-04-28T08:24:48.187Z,1.60
2023-04-28T08:27:14.580Z,1.76
2023-04-28T08:29:40.975Z,1.55
2023-04-28T08:32:07.356Z,1.63
2023-04-28T08:34:34.272Z,1.65
2023-04-28T08:37:00.981Z,1.70
2023-04-28T08:39:28.364Z,1.75
2023-04-28T08:41:54.908Z,1.59
2023-04-28T08:44:21.414Z,1.89
2023-04-28T08:46:47.820Z,1.93
2023-04-28T08:49:14.354Z,2.13
2023-04-28T08:51:42.110Z,2.15
2023-04-28T08:56:37.962Z,1.70
2023-04-28T08:59:04.394Z,1.61
2023-04-28T09:01:30.770Z,1.75
2023-04-28T09:03:57.384Z,1.64
2023-04-28T09:06:25.064Z,2.03
2023-04-28T09:08:51.562Z,1.63
2023-04-28T09:11:18.281Z,1.65
2023-04-28T09:13:44.860Z,1.57
2023-04-28T09:16:11.393Z,1.70
2023-04-28T09:18:37.833Z,1.59
2023-04-28T09:21:04.422Z,1.59
2023-04-28T09:23:30.847Z,1.88
2023-04-28T09:25:57.263Z,1.99
2023-04-28T09:28:23.675Z,2.04
2023-04-28T09:30:50.077Z,1.73
2023-04-28T09:33:16.554Z,1.89
2023-04-28T09:35:43.545Z,2.15
2023-04-28T09:38:10.235Z,1.78
2023-04-28T09:40:36.693Z,1.65
2023-04-28T09:43:15.113Z,1.37
2023-04-28T09:45:45.518Z,1.87
2023-04-28T09:48:12.421Z,1.64
2023-04-28T09:50:38.809Z,2.00
2023-04-28T09:53:06.168Z,2.15
2023-04-28T09:55:32.524Z,2.21
2023-04-28T09:58:03.064Z,2.24
2023-04-28T10:00:30.257Z,1.83
2023-04-28T10:02:57.177Z,1.56
2023-04-28T10:05:23.883Z,2.23
2023-04-28T10:07:50.422Z,1.60
2023-04-28T10:10:16.787Z,1.73
2023-04-28T10:12:43.177Z,1.45
2023-04-28T10:15:09.747Z,1.52
2023-04-28T10:17:36.235Z,1.42
2023-04-28T10:20:02.752Z,1.42
2023-04-28T10:22:29.156Z,1.50
2023-04-28T10:24:55.740Z,1.48
2023-04-28T10:27:23.094Z,1.55
2023-04-28T10:29:49.491Z,2.49
2023-04-28T10:32:16.481Z,1.85
2023-04-28T10:34:43.113Z,1.65
2023-04-28T10:37:09.567Z,1.63
2023-04-28T10:39:35.971Z,1.48
2023-04-28T10:42:03.382Z,1.27
2023-04-28T10:44:30.103Z,1.14
2023-04-28T10:46:58.739Z,1.35
2023-04-28T10:49:27.509Z,1.17
2023-04-28T10:51:54.286Z,1.12
2023-04-28T10:54:23.088Z,1.18
2023-04-28T10:56:49.654Z,1.26
2023-04-28T10:59:16.179Z,1.33
2023-04-28T11:01:42.609Z,1.35
2023-04-28T11:04:09.699Z,1.40
2023-04-28T11:06:36.243Z,1.57
2023-04-28T11:09:02.641Z,1.21
2023-04-28T11:11:29.036Z,1.48
2023-04-28T11:13:55.542Z,1.44
2023-04-28T11:16:22.045Z,1.63
2023-04-28T11:18:48.432Z,1.55
2023-04-28T11:21:21.927Z,1.26
2023-04-28T11:23:48.298Z,1.38
2023-04-28T11:26:15.710Z,1.04
2023-04-28T11:28:42.086Z,1.08
2023-04-28T11:31:11.239Z,0.95
2023-04-28T11:33:37.623Z,0.99
2023-04-28T11:36:03.996Z,1.07
2023-04-28T11:38:30.317Z,1.04
2023-04-28T11:40:58.874Z,1.11
2023-04-28T11:43:28.950Z,1.12
2023-04-28T11:46:00.225Z,1.06
2023-04-28T11:48:26.704Z,1.06
2023-04-28T11:50:53.265Z,1.05
2023-04-28T11:53:19.732Z,1.00
2023-04-28T11:55:47.008Z,1.16
2023-04-28T11:58:14.124Z,1.30
2023-04-28T12:00:40.528Z,1.33
2023-04-28T12:03:07.071Z,1.32
2023-04-28T12:05:36.823Z,1.31
2023-04-28T12:08:04.619Z,1.34
2023-04-28T12:10:31.350Z,1.23
2023-04-28T12:12:57.919Z,1.25
2023-04-28T12:15:24.295Z,1.17
2023-04-28T12:17:53.838Z,1.25
2023-04-28T12:20:20.290Z,1.26
2023-04-28T12:22:48.819Z,1.38
2023-04-28T12:25:15.336Z,1.17
2023-04-28T12:27:41.782Z,1.07
2023-04-28T12:30:08.322Z,1.02
2023-04-28T12:32:34.802Z,1.02
2023-04-28T12:35:01.188Z,0.95
2023-04-28T12:37:28.324Z,1.22
2023-04-28T12:39:54.902Z,1.12
2023-04-28T12:42:21.550Z,1.19
2023-04-28T12:44:50.193Z,1.23
2023-04-28T12:47:16.549Z,1.15
2023-04-28T12:49:44.220Z,1.11
2023-04-28T12:52:13.593Z,0.98
2023-04-28T12:54:40.082Z,1.13
2023-04-28T12:57:06.606Z,1.12
2023-04-28T12:59:33.176Z,1.13
2023-04-28T13:01:59.660Z,1.13
2023-04-28T13:04:26.350Z,1.15
2023-04-28T13:06:53.168Z,1.11
2023-04-28T13:09:19.551Z,1.20
2023-04-28T13:11:46.930Z,1.14
2023-04-28T13:14:13.307Z,1.21
2023-04-28T13:16:39.794Z,1.18
2023-04-28T13:19:06.499Z,1.29
2023-04-28T13:21:33.139Z,1.44
2023-04-28T13:23:59.696Z,1.40
2023-04-28T13:26:26.135Z,1.23
2023-04-28T13:28:52.518Z,1.37
2023-04-28T13:31:18.996Z,1.05
2023-04-28T13:33:46.875Z,1.21
2023-04-28T13:36:13.282Z,1.23
2023-04-28T13:38:39.899Z,1.37
2023-04-28T13:41:06.254Z,1.30
2023-04-28T13:43:32.719Z,1.20
2023-04-28T13:45:59.809Z,1.40
2023-04-28T13:48:27.133Z,1.31
2023-04-28T13:50:53.450Z,1.25
2023-04-28T13:53:19.783Z,1.22
2023-04-28T13:55:47.065Z,1.16
2023-04-28T13:58:14.319Z,1.21
2023-04-28T14:00:43.216Z,1.12
2023-04-28T14:03:10.517Z,1.26
2023-04-28T14:05:46.148Z,1.43
2023-04-28T14:08:17.598Z,1.34
2023-04-28T14:10:45.232Z,1.44
2023-04-28T14:13:11.642Z,1.43
2023-04-28T14:15:42.479Z,1.41
2023-04-28T14:18:18.510Z,1.55
2023-04-28T14:20:47.477Z,1.38
2023-04-28T14:23:14.960Z,1.44
2023-04-28T14:25:41.637Z,1.53
2023-04-28T14:28:08.597Z,1.34
2023-04-28T14:30:35.230Z,1.39
2023-04-28T14:33:01.755Z,1.43
2023-04-28T14:35:28.185Z,1.36
2023-04-28T14:37:54.688Z,1.21
2023-04-28T14:40:21.230Z,1.72
2023-04-28T14:42:48.513Z,1.72
2023-04-28T14:45:15.245Z,1.26
2023-04-28T14:47:41.632Z,1.36
2023-04-28T14:50:08.118Z,1.44
2023-04-28T14:52:34.527Z,1.78
2023-04-28T14:55:00.940Z,1.62
2023-04-28T14:57:27.329Z,1.37
2023-04-28T14:59:53.824Z,1.31
2023-04-28T15:02:21.593Z,1.45
2023-04-28T15:04:50.414Z,1.26
2023-04-28T15:07:17.892Z,1.31
2023-04-28T15:09:44.227Z,1.29
2023-04-28T15:12:10.734Z,1.33
2023-04-28T15:14:39.350Z,1.19
2023-04-28T15:17:05.740Z,1.45
2023-04-28T15:19:32.137Z,1.69
2023-04-28T15:21:58.579Z,1.36
2023-04-28T15:24:24.953Z,1.46
2023-04-28T15:26:51.561Z,1.37
2023-04-28T15:29:18.008Z,1.54
2023-04-28T15:31:44.411Z,1.36
2023-04-28T15:34:10.987Z,1.49
2023-04-28T15:36:39.752Z,1.51
2023-04-28T15:39:06.413Z,1.45
2023-04-28T15:41:34.884Z,1.44
2023-04-28T15:44:01.259Z,1.43
2023-04-28T15:46:29.767Z,1.52
2023-04-28T15:48:56.183Z,1.64
2023-04-28T15:51:23.201Z,3.60
2023-04-28T15:53:49.597Z,3.03
2023-04-28T15:56:16.856Z,1.39
2023-04-28T15:58:47.356Z,1.77
2023-04-28T16:01:13.768Z,1.59
2023-04-28T16:03:40.355Z,1.59
2023-04-28T16:06:06.945Z,1.77
2023-04-28T16:08:33.514Z,1.66
2023-04-28T16:11:01.081Z,1.57
2023-04-28T16:13:28.217Z,1.48
2023-04-28T16:15:54.689Z,1.44
2023-04-28T16:18:21.114Z,1.52
2023-04-28T16:20:48.307Z,1.72
2023-04-28T16:23:14.847Z,1.69
2023-04-28T16:25:41.274Z,1.60
2023-04-28T16:28:07.653Z,1.56
2023-04-28T16:30:34.122Z,1.63
2023-04-28T16:33:00.536Z,1.64
2023-04-28T16:35:27.796Z,1.46
2023-04-28T16:37:54.493Z,1.56
2023-04-28T16:40:20.882Z,1.60
2023-04-28T16:42:49.893Z,1.69
2023-04-28T16:45:16.552Z,1.64
2023-04-28T16:47:43.244Z,1.55
2023-04-28T16:50:09.795Z,1.56
2023-04-28T16:52:36.703Z,1.73
2023-04-28T16:55:03.066Z,2.14
2023-04-28T16:57:29.471Z,1.62
2023-04-28T16:59:55.870Z,1.59
2023-04-28T17:02:22.412Z,1.70
2023-04-28T17:04:48.889Z,1.67
2023-04-28T17:07:15.261Z,1.71
2023-04-28T17:09:41.689Z,1.46
2023-04-28T17:12:10.429Z,1.59
2023-04-28T17:14:38.884Z,1.64
2023-04-28T17:17:05.261Z,1.41
2023-04-28T17:19:31.705Z,1.54
2023-04-28T17:22:00.633Z,1.56
2023-04-28T17:24:27.230Z,1.73
2023-04-28T17:26:55.708Z,1.65
2023-04-28T17:29:22.277Z,1.76
2023-04-28T17:31:48.789Z,1.63
2023-04-28T17:34:15.381Z,1.65
2023-04-28T17:36:41.746Z,1.48
2023-04-28T17:39:08.098Z,1.63
2023-04-28T17:41:34.622Z,1.75
2023-04-28T17:44:01.041Z,1.88
2023-04-28T17:46:28.270Z,1.87
2023-04-28T17:48:54.860Z,1.66
2023-04-28T17:51:22.039Z,1.64
2023-04-28T17:53:48.484Z,1.63
2023-04-28T17:56:15.876Z,1.72
2023-04-28T17:58:42.802Z,1.68
2023-04-28T18:01:09.391Z,1.72
2023-04-28T18:03:36.195Z,1.83
2023-04-28T18:06:02.987Z,1.99
2023-04-28T18:08:29.393Z,1.80
2023-04-28T18:10:55.782Z,1.76
2023-04-28T18:13:22.176Z,1.70
2023-04-28T18:15:48.858Z,1.73
2023-04-28T18:18:15.286Z,1.73
2023-04-28T18:20:41.693Z,1.90
2023-04-28T18:23:08.126Z,2.03
2023-04-28T18:25:34.544Z,2.36
2023-04-28T18:28:01.422Z,1.91
2023-04-28T18:30:27.817Z,1.92
2023-04-28T18:32:54.381Z,2.23
2023-04-28T18:35:20.796Z,2.70
2023-04-28T18:37:47.165Z,2.36
2023-04-28T18:40:13.581Z,1.90
2023-04-28T18:42:40.024Z,1.89
2023-04-28T18:45:06.966Z,2.02
2023-04-28T18:47:33.361Z,1.83
2023-04-28T18:49:59.924Z,1.61
2023-04-28T18:52:26.489Z,1.88
2023-04-28T18:54:53.010Z,1.77
2023-04-28T18:57:22.368Z,2.09
2023-04-28T18:59:48.985Z,2.15
2023-04-28T19:02:15.582Z,2.10
2023-04-28T19:04:42.134Z,2.12
2023-04-28T19:07:11.850Z,1.84
2023-04-28T19:09:45.596Z,1.60
2023-04-28T19:12:12.021Z,1.43
2023-04-28T19:14:39.463Z,1.35
2023-04-28T19:17:06.082Z,1.40
2023-04-28T19:19:35.352Z,1.17
2023-04-28T19:22:01.752Z,1.02
2023-04-28T19:24:28.155Z,1.09
2023-04-28T19:26:55.956Z,0.97
2023-04-28T19:29:23.644Z,1.27
2023-04-28T19:31:50.062Z,1.20
2023-04-28T19:34:16.446Z,1.09
2023-04-28T19:36:42.800Z,1.24
2023-04-28T19:39:09.453Z,1.37
2023-04-28T19:41:36.180Z,1.51
2023-04-28T19:44:02.597Z,1.38
2023-04-28T19:46:28.996Z,1.77
2023-04-28T19:48:55.511Z,1.26
2023-04-28T19:51:22.456Z,1.34
2023-04-28T19:53:48.816Z,1.55
2023-04-28T19:56:15.215Z,1.32
2023-04-28T19:58:43.870Z,1.09
2023-04-28T20:01:10.300Z,1.18
2023-04-28T20:03:36.798Z,1.44
2023-04-28T20:06:10.525Z,1.42
2023-04-28T20:08:36.908Z,1.46
2023-04-28T20:11:03.312Z,1.56
2023-04-28T20:13:29.736Z,1.85
2023-04-28T20:15:56.183Z,1.55
2023-04-28T20:18:22.597Z,1.59
2023-04-28T20:20:49.025Z,1.82
2023-04-28T20:23:15.411Z,1.80
2023-04-28T20:25:41.814Z,1.72
2023-04-28T20:28:08.233Z,1.62
2023-04-28T20:30:34.615Z,1.86
2023-04-28T20:33:01.030Z,2.06
2023-04-28T20:35:27.548Z,1.96
2023-04-28T20:37:53.903Z,2.06
2023-04-28T20:40:20.607Z,1.91
2023-04-28T20:42:47.364Z,1.97
2023-04-28T20:45:13.789Z,2.13
2023-04-28T20:47:40.386Z,2.09
2023-04-28T20:50:06.800Z,1.95
2023-04-28T20:52:33.267Z,1.95
2023-04-28T20:55:00.692Z,2.04
2023-04-28T20:57:27.074Z,2.07
2023-04-28T20:59:53.532Z,2.72
2023-04-28T21:02:20.031Z,2.72
2023-04-28T21:04:46.450Z,2.15
2023-04-28T21:07:12.806Z,2.45
2023-04-28T21:09:39.193Z,2.64
2023-04-28T21:12:05.548Z,2.39
2023-04-28T21:14:31.957Z,1.96
2023-04-28T21:16:58.379Z,1.83
2023-04-28T21:19:24.995Z,1.78
2023-04-28T21:21:51.384Z,1.60
2023-04-28T21:24:17.741Z,1.55
2023-04-28T21:26:44.149Z,1.56
2023-04-28T21:29:10.545Z,1.39
2023-04-28T21:31:36.985Z,1.39
2023-04-28T21:34:04.536Z,1.20
2023-04-28T21:36:31.134Z,1.53
2023-04-28T21:38:57.542Z,1.35
2023-04-28T21:41:24.177Z,1.11
2023-04-28T21:43:50.539Z,1.08
2023-04-28T21:46:16.988Z,0.92
2023-04-28T21:48:43.589Z,1.04
2023-04-28T21:51:12.232Z,1.05
2023-04-28T21:53:38.584Z,1.04
2023-04-28T21:56:04.905Z,1.11
2023-04-28T21:58:31.735Z,1.24
2023-04-28T22:00:58.318Z,1.20
2023-04-28T22:03:25.058Z,1.14
2023-04-28T22:05:51.517Z,1.21
2023-04-28T22:08:17.928Z,1.19
2023-04-28T22:10:44.518Z,1.09
2023-04-28T22:13:10.927Z,1.13
2023-04-28T22:15:37.538Z,1.18
2023-04-28T22:18:04.087Z,1.34
2023-04-28T22:20:30.736Z,1.20
2023-04-28T22:22:57.152Z,1.26
2023-04-28T22:25:23.810Z,1.08
2023-04-28T22:27:50.235Z,1.00
2023-04-28T22:30:16.654Z,1.05
2023-04-28T22:32:43.137Z,1.12
2023-04-28T22:35:09.584Z,1.14
2023-04-28T22:37:35.953Z,1.12
2023-04-28T22:40:02.526Z,0.99
2023-04-28T22:42:28.872Z,1.03
2023-04-28T22:44:55.247Z,1.04
2023-04-28T22:47:21.809Z,1.01
2023-04-28T22:49:48.190Z,1.00
2023-04-28T22:52:14.570Z,0.98
2023-04-28T22:54:40.908Z,0.98
2023-04-28T22:57:07.265Z,0.85
2023-04-28T22:59:33.678Z,0.80
2023-04-28T23:02:02.149Z,0.85
2023-04-28T23:04:29.538Z,0.89
2023-04-28T23:06:55.993Z,0.99
2023-04-28T23:09:22.348Z,0.99
2023-04-28T23:11:48.680Z,1.16
2023-04-28T23:14:15.199Z,1.37
2023-04-28T23:16:41.572Z,1.28
2023-04-28T23:19:07.927Z,1.06
2023-04-28T23:21:34.265Z,0.90
2023-04-28T23:24:07.953Z,0.89
2023-04-28T23:26:34.328Z,1.03
2023-04-28T23:29:00.693Z,1.17
2023-04-28T23:31:27.118Z,1.12
2023-04-28T23:33:53.524Z,1.38
2023-04-28T23:36:19.868Z,1.31
2023-04-28T23:38:46.253Z,1.36
2023-04-28T23:41:12.638Z,1.17
2023-04-28T23:43:39.211Z,1.08
2023-04-28T23:46:05.613Z,0.91
2023-04-28T23:48:32.017Z,0.88
2023-04-28T23:50:58.777Z,1.02
2023-04-28T23:53:25.171Z,1.09
2023-04-28T23:55:51.870Z,1.35
2023-04-28T23:58:19.295Z,2.34
